sensor_id;sensor_type;location;lat;lon;timestamp;P1;durP1;ratioP1;P2;durP2;ratioP2
17844;SDS011;9047;53.486;10.218;2024-03-23T00:55:36;29.13;;;4.43;;
17844;SDS011;9047;53.486;10.218;2024-03-23T00:58:02;28.33;;;4.68;;
17844;SDS011;9047;53.486;10.218;2024-03-23T01:00:30;28.35;;;4.40;;
17844;SDS011;9047;53.486;10.218;2024-03-23T01:02:57;27.95;;;4.15;;
17844;SDS011;9047;53.486;10.218;2024-03-23T01:05:23;28.05;;;4.32;;
17844;SDS011;9047;53.486;10.218;2024-03-23T01:07:50;23.48;;;4.88;;
17844;SDS011;9047;53.486;10.218;2024-03-23T01:10:17;26.50;;;4.60;;
17844;SDS011;9047;53.486;10.218;2024-03-23T01:12:43;25.55;;;3.85;;
17844;SDS011;9047;53.486;10.218;2024-03-23T01:15:11;22.92;;;4.03;;
17844;SDS011;9047;53.486;10.218;2024-03-23T01:17:39;30.02;;;4.90;;
17844;SDS011;9047;53.486;10.218;2024-03-23T01:20:06;28.17;;;4.60;;
17844;SDS011;9047;53.486;10.218;2024-03-23T01:22:35;21.55;;;3.88;;
17844;SDS011;9047;53.486;10.218;2024-03-23T01:25:04;28.05;;;4.55;;
17844;SDS011;9047;53.486;10.218;2024-03-23T01:27:30;23.50;;;4.57;;
17844;SDS011;9047;53.486;10.218;2024-03-23T01:29:57;30.35;;;5.15;;
17844;SDS011;9047;53.486;10.218;2024-03-23T01:32:23;35.30;;;4.60;;
17844;SDS011;9047;53.486;10.218;2024-03-23T01:34:52;26.23;;;4.90;;
17844;SDS011;9047;53.486;10.218;2024-03-23T01:37:17;28.40;;;4.70;;
17844;SDS011;9047;53.486;10.218;2024-03-23T01:39:45;35.13;;;5.15;;
17844;SDS011;9047;53.486;10.218;2024-03-23T01:42:12;30.73;;;5.00;;
17844;SDS011;9047;53.486;10.218;2024-03-23T01:44:40;25.50;;;4.20;;
17844;SDS011;9047;53.486;10.218;2024-03-23T01:47:07;24.35;;;4.22;;
17844;SDS011;9047;53.486;10.218;2024-03-23T01:49:38;27.65;;;4.68;;
17844;SDS011;9047;53.486;10.218;2024-03-23T01:52:07;28.08;;;4.78;;
17844;SDS011;9047;53.486;10.218;2024-03-23T01:54:36;21.45;;;4.13;;
17844;SDS011;9047;53.486;10.218;2024-03-23T01:57:04;24.30;;;4.78;;
17844;SDS011;9047;53.486;10.218;2024-03-23T01:59:31;27.75;;;4.50;;
17844;SDS011;9047;53.486;10.218;2024-03-23T02:01:59;32.13;;;5.30;;
17844;SDS011;9047;53.486;10.218;2024-03-23T02:04:26;29.70;;;4.60;;
17844;SDS011;9047;53.486;10.218;2024-03-23T02:06:52;25.08;;;4.05;;
17844;SDS011;9047;53.486;10.218;2024-03-23T02:09:21;24.95;;;4.00;;
17844;SDS011;9047;53.486;10.218;2024-03-23T02:11:48;26.20;;;4.20;;
17844;SDS011;9047;53.486;10.218;2024-03-23T02:14:17;24.52;;;4.50;;
17844;SDS011;9047;53.486;10.218;2024-03-23T02:16:43;27.45;;;4.60;;
17844;SDS011;9047;53.486;10.218;2024-03-23T02:19:12;27.83;;;4.32;;
17844;SDS011;9047;53.486;10.218;2024-03-23T02:21:38;26.45;;;4.18;;
17844;SDS011;9047;53.486;10.218;2024-03-23T02:24:07;24.15;;;4.18;;
17844;SDS011;9047;53.486;10.218;2024-03-23T02:26:33;32.13;;;4.32;;
17844;SDS011;9047;53.486;10.218;2024-03-23T02:29:00;23.90;;;4.22;;
17844;SDS011;9047;53.486;10.218;2024-03-23T02:31:26;26.60;;;4.22;;
17844;SDS011;9047;53.486;10.218;2024-03-23T02:33:53;21.10;;;4.55;;
17844;SDS011;9047;53.486;10.218;2024-03-23T02:36:19;23.67;;;4.03;;
17844;SDS011;9047;53.486;10.218;2024-03-23T02:38:46;30.23;;;5.30;;
17844;SDS011;9047;53.486;10.218;2024-03-23T02:41:17;20.75;;;3.95;;
17844;SDS011;9047;53.486;10.218;2024-03-23T02:43:48;27.50;;;4.72;;
17844;SDS011;9047;53.486;10.218;2024-03-23T02:46:14;26.60;;;4.47;;
17844;SDS011;9047;53.486;10.218;2024-03-23T02:48:41;32.25;;;5.00;;
17844;SDS011;9047;53.486;10.218;2024-03-23T02:51:08;30.42;;;4.80;;
17844;SDS011;9047;53.486;10.218;2024-03-23T02:53:35;29.65;;;5.00;;
17844;SDS011;9047;53.486;10.218;2024-03-23T02:56:05;26.92;;;4.13;;
17844;SDS011;9047;53.486;10.218;2024-03-23T02:58:37;22.73;;;4.25;;
17844;SDS011;9047;53.486;10.218;2024-03-23T03:01:08;25.20;;;4.38;;
17844;SDS011;9047;53.486;10.218;2024-03-23T03:03:36;22.92;;;4.40;;
17844;SDS011;9047;53.486;10.218;2024-03-23T03:06:03;30.88;;;5.47;;
17844;SDS011;9047;53.486;10.218;2024-03-23T03:08:31;25.15;;;4.10;;
17844;SDS011;9047;53.486;10.218;2024-03-23T03:10:57;25.10;;;4.38;;
17844;SDS011;9047;53.486;10.218;2024-03-23T03:13:24;25.83;;;4.28;;
17844;SDS011;9047;53.486;10.218;2024-03-23T03:15:53;24.67;;;4.63;;
17844;SDS011;9047;53.486;10.218;2024-03-23T03:18:20;22.83;;;4.57;;
17844;SDS011;9047;53.486;10.218;2024-03-23T03:20:45;25.73;;;4.10;;
17844;SDS011;9047;53.486;10.218;2024-03-23T03:23:15;20.42;;;4.00;;
17844;SDS011;9047;53.486;10.218;2024-03-23T03:25:43;22.92;;;4.30;;
17844;SDS011;9047;53.486;10.218;2024-03-23T03:28:09;20.40;;;3.88;;
17844;SDS011;9047;53.486;10.218;2024-03-23T03:30:39;23.58;;;4.93;;
17844;SDS011;9047;53.486;10.218;2024-03-23T03:33:08;27.70;;;4.18;;
17844;SDS011;9047;53.486;10.218;2024-03-23T03:35:36;25.08;;;4.82;;
17844;SDS011;9047;53.486;10.218;2024-03-23T03:38:05;24.67;;;3.75;;
17844;SDS011;9047;53.486;10.218;2024-03-23T03:40:31;22.95;;;4.38;;
17844;SDS011;9047;53.486;10.218;2024-03-23T03:42:58;30.25;;;4.72;;
17844;SDS011;9047;53.486;10.218;2024-03-23T03:45:29;21.65;;;4.03;;
17844;SDS011;9047;53.486;10.218;2024-03-23T03:47:56;23.33;;;4.55;;
17844;SDS011;9047;53.486;10.218;2024-03-23T03:50:23;21.15;;;4.65;;
17844;SDS011;9047;53.486;10.218;2024-03-23T03:52:50;21.75;;;4.50;;
17844;SDS011;9047;53.486;10.218;2024-03-23T03:55:16;20.27;;;4.22;;
17844;SDS011;9047;53.486;10.218;2024-03-23T03:57:46;21.65;;;4.03;;
17844;SDS011;9047;53.486;10.218;2024-03-23T04:00:13;29.55;;;4.72;;
17844;SDS011;9047;53.486;10.218;2024-03-23T04:02:41;25.40;;;4.07;;
17844;SDS011;9047;53.486;10.218;2024-03-23T04:05:07;32.00;;;4.57;;
17844;SDS011;9047;53.486;10.218;2024-03-23T04:07:36;23.42;;;4.53;;
17844;SDS011;9047;53.486;10.218;2024-03-23T04:10:03;28.98;;;4.93;;
17844;SDS011;9047;53.486;10.218;2024-03-23T04:12:34;27.77;;;4.88;;
17844;SDS011;9047;53.486;10.218;2024-03-23T04:15:01;23.80;;;5.40;;
17844;SDS011;9047;53.486;10.218;2024-03-23T04:17:30;28.70;;;5.78;;
17844;SDS011;9047;53.486;10.218;2024-03-23T04:19:57;22.52;;;4.82;;
17844;SDS011;9047;53.486;10.218;2024-03-23T04:22:25;24.30;;;5.53;;
17844;SDS011;9047;53.486;10.218;2024-03-23T04:24:54;26.65;;;5.40;;
17844;SDS011;9047;53.486;10.218;2024-03-23T04:27:22;31.27;;;5.57;;
17844;SDS011;9047;53.486;10.218;2024-03-23T04:29:47;23.48;;;5.10;;
17844;SDS011;9047;53.486;10.218;2024-03-23T04:32:15;21.08;;;4.88;;
17844;SDS011;9047;53.486;10.218;2024-03-23T04:34:44;28.17;;;5.25;;
17844;SDS011;9047;53.486;10.218;2024-03-23T04:37:11;24.58;;;3.85;;
17844;SDS011;9047;53.486;10.218;2024-03-23T04:39:42;25.02;;;4.50;;
17844;SDS011;9047;53.486;10.218;2024-03-23T04:42:10;27.40;;;4.30;;
17844;SDS011;9047;53.486;10.218;2024-03-23T04:44:39;29.25;;;5.25;;
17844;SDS011;9047;53.486;10.218;2024-03-23T04:47:08;27.30;;;4.78;;
17844;SDS011;9047;53.486;10.218;2024-03-23T04:49:35;24.15;;;4.50;;
17844;SDS011;9047;53.486;10.218;2024-03-23T04:52:02;26.63;;;5.03;;
17844;SDS011;9047;53.486;10.218;2024-03-23T04:54:30;35.67;;;5.40;;
17844;SDS011;9047;53.486;10.218;2024-03-23T04:56:58;23.85;;;5.38;;
17844;SDS011;9047;53.486;10.218;2024-03-23T04:59:27;25.05;;;5.28;;
17844;SDS011;9047;53.486;10.218;2024-03-23T05:01:53;26.65;;;4.50;;
17844;SDS011;9047;53.486;10.218;2024-03-23T05:04:20;26.33;;;5.38;;
17844;SDS011;9047;53.486;10.218;2024-03-23T05:06:50;18.77;;;4.15;;
17844;SDS011;9047;53.486;10.218;2024-03-23T05:09:16;25.70;;;5.10;;
17844;SDS011;9047;53.486;10.218;2024-03-23T05:11:44;27.83;;;5.13;;
17844;SDS011;9047;53.486;10.218;2024-03-23T05:14:11;27.95;;;4.95;;
17844;SDS011;9047;53.486;10.218;2024-03-23T05:16:39;26.83;;;4.65;;
17844;SDS011;9047;53.486;10.218;2024-03-23T05:19:09;33.78;;;5.18;;
17844;SDS011;9047;53.486;10.218;2024-03-23T05:21:36;29.83;;;5.47;;
17844;SDS011;9047;53.486;10.218;2024-03-23T05:24:04;24.45;;;5.07;;
17844;SDS011;9047;53.486;10.218;2024-03-23T05:26:30;23.23;;;4.38;;
17844;SDS011;9047;53.486;10.218;2024-03-23T05:28:59;22.50;;;4.82;;
17844;SDS011;9047;53.486;10.218;2024-03-23T05:31:25;23.90;;;4.25;;
17844;SDS011;9047;53.486;10.218;2024-03-23T05:33:57;26.13;;;5.38;;
17844;SDS011;9047;53.486;10.218;2024-03-23T05:36:23;25.70;;;5.07;;
17844;SDS011;9047;53.486;10.218;2024-03-23T05:38:52;24.73;;;4.70;;
17844;SDS011;9047;53.486;10.218;2024-03-23T05:41:19;30.83;;;4.95;;
17844;SDS011;9047;53.486;10.218;2024-03-23T05:43:49;28.67;;;5.50;;
17844;SDS011;9047;53.486;10.218;2024-03-23T05:46:16;28.15;;;5.82;;
17844;SDS011;9047;53.486;10.218;2024-03-23T05:48:43;29.75;;;6.15;;
17844;SDS011;9047;53.486;10.218;2024-03-23T05:51:11;25.35;;;4.85;;
17844;SDS011;9047;53.486;10.218;2024-03-23T05:53:42;24.70;;;5.18;;
17844;SDS011;9047;53.486;10.218;2024-03-23T05:56:08;27.63;;;4.93;;
17844;SDS011;9047;53.486;10.218;2024-03-23T05:58:35;22.08;;;4.85;;
17844;SDS011;9047;53.486;10.218;2024-03-23T06:01:04;22.42;;;5.05;;
17844;SDS011;9047;53.486;10.218;2024-03-23T06:03:31;22.38;;;4.18;;
17844;SDS011;9047;53.486;10.218;2024-03-23T06:05:57;30.58;;;4.38;;
17844;SDS011;9047;53.486;10.218;2024-03-23T06:08:28;22.65;;;4.20;;
17844;SDS011;9047;53.486;10.218;2024-03-23T06:10:54;29.50;;;4.95;;
17844;SDS011;9047;53.486;10.218;2024-03-23T06:13:21;25.73;;;4.30;;
17844;SDS011;9047;53.486;10.218;2024-03-23T06:15:54;24.63;;;4.25;;
17844;SDS011;9047;53.486;10.218;2024-03-23T06:18:22;23.63;;;4.30;;
17844;SDS011;9047;53.486;10.218;2024-03-23T06:20:50;28.75;;;5.25;;
17844;SDS011;9047;53.486;10.218;2024-03-23T06:23:18;24.45;;;4.38;;
17844;SDS011;9047;53.486;10.218;2024-03-23T06:25:48;28.10;;;4.90;;
17844;SDS011;9047;53.486;10.218;2024-03-23T06:28:14;23.45;;;4.22;;
17844;SDS011;9047;53.486;10.218;2024-03-23T06:30:40;22.60;;;4.60;;
17844;SDS011;9047;53.486;10.218;2024-03-23T06:33:07;19.30;;;4.38;;
17844;SDS011;9047;53.486;10.218;2024-03-23T06:35:33;23.83;;;4.32;;
17844;SDS011;9047;53.486;10.218;2024-03-23T06:38:01;25.75;;;4.78;;
17844;SDS011;9047;53.486;10.218;2024-03-23T06:40:27;18.98;;;4.35;;
17844;SDS011;9047;53.486;10.218;2024-03-23T06:42:55;28.10;;;5.28;;
17844;SDS011;9047;53.486;10.218;2024-03-23T06:45:21;23.20;;;4.72;;
17844;SDS011;9047;53.486;10.218;2024-03-23T06:47:51;25.15;;;4.60;;
17844;SDS011;9047;53.486;10.218;2024-03-23T06:50:17;25.25;;;4.55;;
17844;SDS011;9047;53.486;10.218;2024-03-23T06:52:44;21.92;;;4.13;;
17844;SDS011;9047;53.486;10.218;2024-03-23T06:55:10;23.92;;;4.45;;
17844;SDS011;9047;53.486;10.218;2024-03-23T06:57:38;21.25;;;4.45;;
17844;SDS011;9047;53.486;10.218;2024-03-23T07:00:08;22.80;;;4.30;;
17844;SDS011;9047;53.486;10.218;2024-03-23T07:02:39;17.35;;;3.80;;
17844;SDS011;9047;53.486;10.218;2024-03-23T07:05:05;19.75;;;4.22;;
17844;SDS011;9047;53.486;10.218;2024-03-23T07:07:37;19.38;;;4.32;;
17844;SDS011;9047;53.486;10.218;2024-03-23T07:10:06;20.08;;;4.50;;
17844;SDS011;9047;53.486;10.218;2024-03-23T07:12:34;22.75;;;4.30;;
17844;SDS011;9047;53.486;10.218;2024-03-23T07:15:08;16.70;;;4.05;;
17844;SDS011;9047;53.486;10.218;2024-03-23T07:17:36;21.35;;;3.85;;
17844;SDS011;9047;53.486;10.218;2024-03-23T07:20:04;23.55;;;4.03;;
17844;SDS011;9047;53.486;10.218;2024-03-23T07:22:36;19.75;;;4.18;;
17844;SDS011;9047;53.486;10.218;2024-03-23T07:25:04;21.35;;;4.13;;
17844;SDS011;9047;53.486;10.218;2024-03-23T07:27:34;20.35;;;4.25;;
17844;SDS011;9047;53.486;10.218;2024-03-23T07:30:06;19.92;;;4.03;;
17844;SDS011;9047;53.486;10.218;2024-03-23T07:32:35;18.23;;;3.42;;
17844;SDS011;9047;53.486;10.218;2024-03-23T07:35:04;16.33;;;3.50;;
17844;SDS011;9047;53.486;10.218;2024-03-23T07:37:32;23.15;;;4.07;;
17844;SDS011;9047;53.486;10.218;2024-03-23T07:39:58;18.58;;;4.20;;
17844;SDS011;9047;53.486;10.218;2024-03-23T07:42:25;17.52;;;3.47;;
17844;SDS011;9047;53.486;10.218;2024-03-23T07:44:51;19.10;;;3.75;;
17844;SDS011;9047;53.486;10.218;2024-03-23T07:47:21;24.05;;;3.78;;
17844;SDS011;9047;53.486;10.218;2024-03-23T07:49:48;18.42;;;4.18;;
17844;SDS011;9047;53.486;10.218;2024-03-23T07:52:16;15.40;;;3.40;;
17844;SDS011;9047;53.486;10.218;2024-03-23T07:54:43;19.55;;;4.20;;
17844;SDS011;9047;53.486;10.218;2024-03-23T07:57:20;24.33;;;4.03;;
17844;SDS011;9047;53.486;10.218;2024-03-23T07:59:49;21.30;;;3.67;;
17844;SDS011;9047;53.486;10.218;2024-03-23T08:02:17;18.30;;;3.30;;
17844;SDS011;9047;53.486;10.218;2024-03-23T08:04:44;16.13;;;3.70;;
17844;SDS011;9047;53.486;10.218;2024-03-23T08:07:13;18.50;;;3.47;;
17844;SDS011;9047;53.486;10.218;2024-03-23T08:12:24;13.38;;;3.30;;
17844;SDS011;9047;53.486;10.218;2024-03-23T08:14:51;20.10;;;3.75;;
17844;SDS011;9047;53.486;10.218;2024-03-23T08:17:18;13.82;;;3.75;;
17844;SDS011;9047;53.486;10.218;2024-03-23T08:19:49;15.57;;;3.38;;
17844;SDS011;9047;53.486;10.218;2024-03-23T08:22:23;17.52;;;3.40;;
17844;SDS011;9047;53.486;10.218;2024-03-23T08:24:49;17.30;;;3.60;;
17844;SDS011;9047;53.486;10.218;2024-03-23T08:27:16;14.98;;;3.22;;
17844;SDS011;9047;53.486;10.218;2024-03-23T08:29:45;20.00;;;3.70;;
17844;SDS011;9047;53.486;10.218;2024-03-23T08:32:12;15.65;;;3.45;;
17844;SDS011;9047;53.486;10.218;2024-03-23T08:34:39;16.25;;;3.10;;
17844;SDS011;9047;53.486;10.218;2024-03-23T08:40:12;19.98;;;3.35;;
17844;SDS011;9047;53.486;10.218;2024-03-23T08:42:41;19.27;;;3.08;;
17844;SDS011;9047;53.486;10.218;2024-03-23T08:45:08;16.25;;;3.55;;
17844;SDS011;9047;53.486;10.218;2024-03-23T08:47:36;16.50;;;3.45;;
17844;SDS011;9047;53.486;10.218;2024-03-23T08:50:06;18.58;;;4.00;;
17844;SDS011;9047;53.486;10.218;2024-03-23T08:52:33;16.27;;;2.85;;
17844;SDS011;9047;53.486;10.218;2024-03-23T08:55:02;15.10;;;3.75;;
17844;SDS011;9047;53.486;10.218;2024-03-23T08:57:29;19.02;;;3.40;;
17844;SDS011;9047;53.486;10.218;2024-03-23T09:00:10;14.10;;;3.15;;
17844;SDS011;9047;53.486;10.218;2024-03-23T09:02:37;15.98;;;3.63;;
17844;SDS011;9047;53.486;10.218;2024-03-23T09:05:05;27.38;;;4.40;;
17844;SDS011;9047;53.486;10.218;2024-03-23T09:07:31;18.85;;;3.80;;
17844;SDS011;9047;53.486;10.218;2024-03-23T09:09:58;17.10;;;3.95;;
17844;SDS011;9047;53.486;10.218;2024-03-23T09:12:26;16.75;;;3.53;;
17844;SDS011;9047;53.486;10.218;2024-03-23T09:14:53;13.93;;;3.33;;
17844;SDS011;9047;53.486;10.218;2024-03-23T09:17:20;16.80;;;3.65;;
17844;SDS011;9047;53.486;10.218;2024-03-23T09:19:47;13.70;;;3.30;;
17844;SDS011;9047;53.486;10.218;2024-03-23T09:22:14;15.57;;;3.63;;
17844;SDS011;9047;53.486;10.218;2024-03-23T09:24:42;15.45;;;3.80;;
17844;SDS011;9047;53.486;10.218;2024-03-23T09:27:09;14.23;;;3.00;;
17844;SDS011;9047;53.486;10.218;2024-03-23T09:29:37;14.25;;;3.00;;
17844;SDS011;9047;53.486;10.218;2024-03-23T09:32:07;16.38;;;3.03;;
17844;SDS011;9047;53.486;10.218;2024-03-23T09:34:34;11.82;;;2.80;;
17844;SDS011;9047;53.486;10.218;2024-03-23T09:37:00;12.88;;;2.83;;
17844;SDS011;9047;53.486;10.218;2024-03-23T09:39:36;10.65;;;2.78;;
17844;SDS011;9047;53.486;10.218;2024-03-23T09:42:03;13.60;;;2.67;;
17844;SDS011;9047;53.486;10.218;2024-03-23T09:44:35;13.75;;;2.53;;
17844;SDS011;9047;53.486;10.218;2024-03-23T09:47:04;11.20;;;2.42;;
17844;SDS011;9047;53.486;10.218;2024-03-23T09:49:32;9.10;;;2.60;;
17844;SDS011;9047;53.486;10.218;2024-03-23T09:52:02;12.38;;;2.28;;
17844;SDS011;9047;53.486;10.218;2024-03-23T09:54:32;12.95;;;2.58;;
17844;SDS011;9047;53.486;10.218;2024-03-23T09:56:58;13.02;;;2.78;;
17844;SDS011;9047;53.486;10.218;2024-03-23T09:59:26;14.68;;;2.53;;
17844;SDS011;9047;53.486;10.218;2024-03-23T10:01:57;11.65;;;2.28;;
17844;SDS011;9047;53.486;10.218;2024-03-23T10:04:40;10.25;;;2.60;;
17844;SDS011;9047;53.486;10.218;2024-03-23T10:07:11;9.15;;;2.10;;
17844;SDS011;9047;53.486;10.218;2024-03-23T10:09:39;10.02;;;2.97;;
17844;SDS011;9047;53.486;10.218;2024-03-23T10:12:09;10.90;;;2.20;;
17844;SDS011;9047;53.486;10.218;2024-03-23T10:14:39;9.02;;;2.28;;
17844;SDS011;9047;53.486;10.218;2024-03-23T10:17:13;8.20;;;2.20;;
17844;SDS011;9047;53.486;10.218;2024-03-23T10:19:42;12.30;;;2.13;;
17844;SDS011;9047;53.486;10.218;2024-03-23T10:22:09;8.30;;;1.92;;
17844;SDS011;9047;53.486;10.218;2024-03-23T10:24:43;9.10;;;2.00;;
17844;SDS011;9047;53.486;10.218;2024-03-23T10:27:09;12.68;;;2.55;;
17844;SDS011;9047;53.486;10.218;2024-03-23T10:29:41;12.05;;;2.00;;
17844;SDS011;9047;53.486;10.218;2024-03-23T10:32:07;10.60;;;2.10;;
17844;SDS011;9047;53.486;10.218;2024-03-23T10:34:37;11.55;;;2.60;;
17844;SDS011;9047;53.486;10.218;2024-03-23T10:37:04;8.07;;;2.30;;
17844;SDS011;9047;53.486;10.218;2024-03-23T10:39:32;13.85;;;2.47;;
17844;SDS011;9047;53.486;10.218;2024-03-23T10:42:00;12.35;;;2.42;;
17844;SDS011;9047;53.486;10.218;2024-03-23T10:44:28;11.25;;;2.50;;
17844;SDS011;9047;53.486;10.218;2024-03-23T10:46:56;11.23;;;2.20;;
17844;SDS011;9047;53.486;10.218;2024-03-23T10:49:31;8.60;;;2.55;;
17844;SDS011;9047;53.486;10.218;2024-03-23T10:51:59;8.93;;;1.90;;
17844;SDS011;9047;53.486;10.218;2024-03-23T10:54:27;10.95;;;2.33;;
17844;SDS011;9047;53.486;10.218;2024-03-23T10:56:56;7.70;;;1.80;;
17844;SDS011;9047;53.486;10.218;2024-03-23T10:59:27;9.07;;;2.28;;
17844;SDS011;9047;53.486;10.218;2024-03-23T11:01:56;7.70;;;2.03;;
17844;SDS011;9047;53.486;10.218;2024-03-23T11:04:31;9.88;;;2.45;;
17844;SDS011;9047;53.486;10.218;2024-03-23T11:07:00;9.30;;;2.15;;
17844;SDS011;9047;53.486;10.218;2024-03-23T11:09:41;9.00;;;1.88;;
17844;SDS011;9047;53.486;10.218;2024-03-23T11:12:26;11.63;;;1.90;;
17844;SDS011;9047;53.486;10.218;2024-03-23T11:14:58;7.68;;;1.77;;
17844;SDS011;9047;53.486;10.218;2024-03-23T11:17:26;7.53;;;1.60;;
17844;SDS011;9047;53.486;10.218;2024-03-23T11:19:56;7.85;;;1.80;;
17844;SDS011;9047;53.486;10.218;2024-03-23T11:22:47;10.38;;;1.80;;
17844;SDS011;9047;53.486;10.218;2024-03-23T11:25:18;4.38;;;1.55;;
17844;SDS011;9047;53.486;10.218;2024-03-23T11:27:46;4.47;;;1.33;;
17844;SDS011;9047;53.486;10.218;2024-03-23T11:30:17;5.22;;;1.40;;
17844;SDS011;9047;53.486;10.218;2024-03-23T11:32:45;5.72;;;1.50;;
17844;SDS011;9047;53.486;10.218;2024-03-23T11:35:25;5.70;;;1.45;;
17844;SDS011;9047;53.486;10.218;2024-03-23T11:38:07;5.90;;;1.48;;
17844;SDS011;9047;53.486;10.218;2024-03-23T11:40:36;4.78;;;1.38;;
17844;SDS011;9047;53.486;10.218;2024-03-23T11:43:03;5.65;;;1.50;;
17844;SDS011;9047;53.486;10.218;2024-03-23T11:45:34;5.75;;;1.83;;
17844;SDS011;9047;53.486;10.218;2024-03-23T11:48:05;9.00;;;1.70;;
17844;SDS011;9047;53.486;10.218;2024-03-23T11:50:35;7.22;;;1.90;;
17844;SDS011;9047;53.486;10.218;2024-03-23T11:53:16;8.38;;;2.10;;
17844;SDS011;9047;53.486;10.218;2024-03-23T11:55:45;6.47;;;1.75;;
17844;SDS011;9047;53.486;10.218;2024-03-23T11:58:12;8.00;;;1.70;;
17844;SDS011;9047;53.486;10.218;2024-03-23T12:00:43;7.72;;;1.85;;
17844;SDS011;9047;53.486;10.218;2024-03-23T12:03:16;11.88;;;3.15;;
17844;SDS011;9047;53.486;10.218;2024-03-23T12:05:47;5.32;;;1.70;;
17844;SDS011;9047;53.486;10.218;2024-03-23T12:08:23;7.43;;;2.03;;
17844;SDS011;9047;53.486;10.218;2024-03-23T12:10:52;30.92;;;3.35;;
17844;SDS011;9047;53.486;10.218;2024-03-23T12:13:20;4.85;;;1.60;;
17844;SDS011;9047;53.486;10.218;2024-03-23T12:15:49;4.95;;;1.58;;
17844;SDS011;9047;53.486;10.218;2024-03-23T12:18:16;3.10;;;1.30;;
17844;SDS011;9047;53.486;10.218;2024-03-23T12:20:49;5.65;;;1.50;;
17844;SDS011;9047;53.486;10.218;2024-03-23T12:23:16;4.20;;;1.13;;
17844;SDS011;9047;53.486;10.218;2024-03-23T12:25:58;7.93;;;1.85;;
17844;SDS011;9047;53.486;10.218;2024-03-23T12:28:25;6.57;;;1.60;;
17844;SDS011;9047;53.486;10.218;2024-03-23T12:30:52;6.10;;;1.60;;
17844;SDS011;9047;53.486;10.218;2024-03-23T12:33:21;5.40;;;1.73;;
17844;SDS011;9047;53.486;10.218;2024-03-23T12:35:48;4.25;;;1.52;;
17844;SDS011;9047;53.486;10.218;2024-03-23T12:38:15;3.88;;;1.35;;
17844;SDS011;9047;53.486;10.218;2024-03-23T12:40:42;2.28;;;1.20;;
17844;SDS011;9047;53.486;10.218;2024-03-23T12:43:15;5.00;;;1.17;;
17844;SDS011;9047;53.486;10.218;2024-03-23T12:45:41;3.65;;;1.20;;
17844;SDS011;9047;53.486;10.218;2024-03-23T12:48:12;2.95;;;1.40;;
17844;SDS011;9047;53.486;10.218;2024-03-23T12:50:38;4.32;;;1.75;;
17844;SDS011;9047;53.486;10.218;2024-03-23T12:53:05;4.97;;;1.33;;
17844;SDS011;9047;53.486;10.218;2024-03-23T12:55:31;6.45;;;1.70;;
17844;SDS011;9047;53.486;10.218;2024-03-23T12:58:01;3.38;;;1.40;;
17844;SDS011;9047;53.486;10.218;2024-03-23T13:00:29;10.45;;;1.33;;
17844;SDS011;9047;53.486;10.218;2024-03-23T13:02:56;4.15;;;1.40;;
17844;SDS011;9047;53.486;10.218;2024-03-23T13:05:22;2.45;;;1.48;;
17844;SDS011;9047;53.486;10.218;2024-03-23T13:07:49;4.65;;;1.55;;
17844;SDS011;9047;53.486;10.218;2024-03-23T13:10:16;2.38;;;1.40;;
17844;SDS011;9047;53.486;10.218;2024-03-23T13:12:46;3.88;;;1.30;;
17844;SDS011;9047;53.486;10.218;2024-03-23T13:15:12;3.63;;;1.25;;
17844;SDS011;9047;53.486;10.218;2024-03-23T13:17:46;5.47;;;1.52;;
17844;SDS011;9047;53.486;10.218;2024-03-23T13:20:14;5.32;;;1.10;;
17844;SDS011;9047;53.486;10.218;2024-03-23T13:22:43;6.15;;;1.60;;
17844;SDS011;9047;53.486;10.218;2024-03-23T13:25:10;4.18;;;1.60;;
17844;SDS011;9047;53.486;10.218;2024-03-23T13:27:37;4.93;;;1.88;;
17844;SDS011;9047;53.486;10.218;2024-03-23T13:30:07;6.32;;;1.90;;
17844;SDS011;9047;53.486;10.218;2024-03-23T13:32:35;4.20;;;2.03;;
17844;SDS011;9047;53.486;10.218;2024-03-23T13:35:03;4.97;;;1.52;;
17844;SDS011;9047;53.486;10.218;2024-03-23T13:37:32;5.60;;;1.40;;
17844;SDS011;9047;53.486;10.218;2024-03-23T13:39:59;4.23;;;1.23;;
17844;SDS011;9047;53.486;10.218;2024-03-23T13:42:26;2.60;;;1.20;;
17844;SDS011;9047;53.486;10.218;2024-03-23T13:44:52;3.45;;;1.58;;
17844;SDS011;9047;53.486;10.218;2024-03-23T13:47:19;4.03;;;1.30;;
17844;SDS011;9047;53.486;10.218;2024-03-23T13:49:47;3.47;;;1.30;;
17844;SDS011;9047;53.486;10.218;2024-03-23T13:52:17;3.40;;;1.30;;
17844;SDS011;9047;53.486;10.218;2024-03-23T13:54:51;3.72;;;1.00;;
17844;SDS011;9047;53.486;10.218;2024-03-23T13:57:18;6.32;;;1.52;;
17844;SDS011;9047;53.486;10.218;2024-03-23T13:59:46;3.10;;;0.77;;
17844;SDS011;9047;53.486;10.218;2024-03-23T14:02:14;3.42;;;1.10;;
17844;SDS011;9047;53.486;10.218;2024-03-23T14:04:41;3.38;;;0.93;;
17844;SDS011;9047;53.486;10.218;2024-03-23T14:07:10;3.22;;;1.00;;
17844;SDS011;9047;53.486;10.218;2024-03-23T14:09:37;5.97;;;1.40;;
17844;SDS011;9047;53.486;10.218;2024-03-23T14:12:18;3.28;;;0.90;;
17844;SDS011;9047;53.486;10.218;2024-03-23T14:14:45;1.50;;;0.90;;
17844;SDS011;9047;53.486;10.218;2024-03-23T14:17:13;1.08;;;0.77;;
17844;SDS011;9047;53.486;10.218;2024-03-23T14:19:42;4.25;;;0.90;;
17844;SDS011;9047;53.486;10.218;2024-03-23T14:22:10;6.05;;;1.10;;
17844;SDS011;9047;53.486;10.218;2024-03-23T14:24:41;3.17;;;0.93;;
17844;SDS011;9047;53.486;10.218;2024-03-23T14:27:08;2.88;;;1.10;;
17844;SDS011;9047;53.486;10.218;2024-03-23T14:29:37;4.03;;;1.05;;
17844;SDS011;9047;53.486;10.218;2024-03-23T14:32:08;3.00;;;1.15;;
17844;SDS011;9047;53.486;10.218;2024-03-23T14:34:38;2.72;;;1.05;;
17844;SDS011;9047;53.486;10.218;2024-03-23T14:37:05;3.63;;;1.33;;
17844;SDS011;9047;53.486;10.218;2024-03-23T14:39:33;8.85;;;1.25;;
17844;SDS011;9047;53.486;10.218;2024-03-23T14:42:01;2.95;;;1.00;;
17844;SDS011;9047;53.486;10.218;2024-03-23T14:44:28;4.38;;;1.13;;
17844;SDS011;9047;53.486;10.218;2024-03-23T14:46:54;4.95;;;1.52;;
17844;SDS011;9047;53.486;10.218;2024-03-23T14:49:26;4.78;;;1.48;;
17844;SDS011;9047;53.486;10.218;2024-03-23T14:51:55;4.60;;;1.30;;
17844;SDS011;9047;53.486;10.218;2024-03-23T14:54:23;3.28;;;1.10;;
17844;SDS011;9047;53.486;10.218;2024-03-23T14:56:52;4.82;;;1.20;;
17844;SDS011;9047;53.486;10.218;2024-03-23T14:59:20;4.45;;;1.27;;
17844;SDS011;9047;53.486;10.218;2024-03-23T15:01:48;3.05;;;1.20;;
17844;SDS011;9047;53.486;10.218;2024-03-23T15:04:17;6.55;;;1.58;;
17844;SDS011;9047;53.486;10.218;2024-03-23T15:06:47;4.68;;;1.45;;
17844;SDS011;9047;53.486;10.218;2024-03-23T15:09:15;6.75;;;1.35;;
17844;SDS011;9047;53.486;10.218;2024-03-23T15:11:51;6.30;;;1.67;;
17844;SDS011;9047;53.486;10.218;2024-03-23T15:14:21;5.38;;;1.20;;
17844;SDS011;9047;53.486;10.218;2024-03-23T15:16:50;5.75;;;1.52;;
17844;SDS011;9047;53.486;10.218;2024-03-23T15:19:19;4.13;;;1.35;;
17844;SDS011;9047;53.486;10.218;2024-03-23T15:21:48;6.47;;;1.65;;
17844;SDS011;9047;53.486;10.218;2024-03-23T15:24:16;5.55;;;1.60;;
17844;SDS011;9047;53.486;10.218;2024-03-23T15:26:45;7.93;;;1.52;;
17844;SDS011;9047;53.486;10.218;2024-03-23T15:29:12;4.60;;;1.75;;
17844;SDS011;9047;53.486;10.218;2024-03-23T15:34:39;3.78;;;1.60;;
17844;SDS011;9047;53.486;10.218;2024-03-23T15:37:15;3.78;;;1.60;;
17844;SDS011;9047;53.486;10.218;2024-03-23T15:39:46;3.30;;;1.25;;
17844;SDS011;9047;53.486;10.218;2024-03-23T15:42:19;3.45;;;0.90;;
17844;SDS011;9047;53.486;10.218;2024-03-23T15:44:45;3.08;;;1.00;;
17844;SDS011;9047;53.486;10.218;2024-03-23T15:47:18;3.38;;;1.23;;
17844;SDS011;9047;53.486;10.218;2024-03-23T15:49:44;2.10;;;0.75;;